createdAt,value
2022-08-08T00:00:52.464Z,50.902351
2022-08-08T00:01:08.747Z,50.902378
2022-08-08T00:02:15.314Z,50.902378
2022-08-08T00:03:20.391Z,50.902390
2022-08-08T00:04:02.670Z,50.902409
2022-08-08T00:05:01.627Z,50.902416
2022-08-08T00:06:03.893Z,50.902393
2022-08-08T00:07:09.083Z,50.902378
2022-08-08T00:08:02.595Z,50.902386
2022-08-08T00:09:01.598Z,50.902378
2022-08-08T00:10:01.584Z,50.902336
2022-08-08T00:11:01.577Z,50.902401
2022-08-08T00:12:06.892Z,50.902386
2022-08-08T00:13:02.552Z,50.902382
2022-08-08T00:14:14.814Z,50.902390
2022-08-08T00:15:03.503Z,50.902386
2022-08-08T00:16:02.566Z,50.902390
2022-08-08T00:17:01.532Z,50.902409
2022-08-08T00:18:03.825Z,50.902416
2022-08-08T00:19:01.874Z,50.902420
2022-08-08T00:20:01.510Z,50.902416
2022-08-08T00:21:01.522Z,50.902382
2022-08-08T00:22:01.490Z,50.902390
2022-08-08T00:23:01.496Z,50.902424
2022-08-08T00:24:01.471Z,50.902405
2022-08-08T00:25:01.466Z,50.902351
2022-08-08T00:26:01.490Z,50.902390
2022-08-08T00:27:01.453Z,50.902428
2022-08-08T00:28:01.450Z,50.902405
2022-08-08T00:29:01.525Z,50.902370
2022-08-08T00:30:01.424Z,50.902374
2022-08-08T00:32:20.678Z,50.902382
2022-08-08T00:32:20.679Z,50.902382
2022-08-08T00:33:02.417Z,50.902397
2022-08-08T00:34:18.357Z,50.902401
2022-08-08T00:35:04.195Z,50.902409
2022-08-08T00:36:01.383Z,50.902409
2022-08-08T00:37:03.608Z,50.902428
2022-08-08T00:38:03.030Z,50.902420
2022-08-08T00:39:01.433Z,50.902405
2022-08-08T00:41:10.898Z,50.902424
2022-08-08T00:41:11.864Z,50.902416
2022-08-08T00:42:07.890Z,50.902416
2022-08-08T00:43:11.765Z,50.902409
2022-08-08T00:44:02.344Z,50.902412
2022-08-08T00:45:03.148Z,50.902412
2022-08-08T00:46:01.325Z,50.902416
2022-08-08T00:47:01.351Z,50.902420
2022-08-08T00:48:05.276Z,50.902435
2022-08-08T00:49:02.337Z,50.902435
2022-08-08T00:50:01.276Z,50.902420
2022-08-08T00:51:01.265Z,50.902424
2022-08-08T00:52:01.298Z,50.902485
2022-08-08T00:53:01.259Z,50.902435
2022-08-08T00:54:04.299Z,50.902435
2022-08-08T00:55:02.233Z,50.902424
2022-08-08T00:56:01.371Z,50.902428
2022-08-08T00:57:01.263Z,50.902435
2022-08-08T00:58:01.213Z,50.902416
2022-08-08T00:59:02.498Z,50.902424
2022-08-08T01:00:01.198Z,50.902397
2022-08-08T01:01:01.207Z,50.902435
2022-08-08T01:02:01.600Z,50.902416
2022-08-08T01:04:00.201Z,50.902527
2022-08-08T01:04:04.602Z,50.902451
2022-08-08T01:05:02.162Z,50.902428
2022-08-08T01:06:02.416Z,50.902451
2022-08-08T01:07:01.622Z,50.902443
2022-08-08T01:08:01.143Z,50.902431
2022-08-08T01:09:01.138Z,50.902435
2022-08-08T01:10:06.198Z,50.902470
2022-08-08T01:11:01.120Z,50.902481
2022-08-08T01:12:01.147Z,50.902431
2022-08-08T01:13:01.108Z,50.902405
2022-08-08T01:14:01.095Z,50.902412
2022-08-08T01:15:01.085Z,50.902420
2022-08-08T01:16:01.257Z,50.902416
2022-08-08T01:17:01.093Z,50.902416
2022-08-08T01:18:02.499Z,50.902451
2022-08-08T01:19:02.575Z,50.902409
2022-08-08T01:20:03.686Z,50.902466
2022-08-08T01:21:01.799Z,50.902451
2022-08-08T01:22:12.408Z,50.902424
2022-08-08T01:23:02.053Z,50.902420
2022-08-08T01:24:05.769Z,50.902416
2022-08-08T01:25:02.011Z,50.902443
2022-08-08T01:26:02.071Z,50.902447
2022-08-08T01:27:00.991Z,50.902428
2022-08-08T01:28:02.231Z,50.902431
2022-08-08T01:29:00.976Z,50.902431
2022-08-08T01:30:33.710Z,50.902405
2022-08-08T01:31:00.965Z,50.902409
2022-08-08T01:32:13.196Z,50.902493
2022-08-08T01:33:01.951Z,50.902435
2022-08-08T01:34:01.951Z,50.902489
2022-08-08T01:35:00.938Z,50.902473
2022-08-08T01:36:01.292Z,50.902431
2022-08-08T01:37:01.791Z,50.902424
2022-08-08T01:38:00.938Z,50.902431
2022-08-08T01:39:00.943Z,50.902401
2022-08-08T01:40:00.985Z,50.902378
2022-08-08T01:41:00.883Z,50.902439
2022-08-08T01:42:01.249Z,50.902420
2022-08-08T01:43:00.873Z,50.902428
2022-08-08T01:44:00.875Z,50.902431
2022-08-08T01:45:00.861Z,50.902393
2022-08-08T01:46:00.850Z,50.902412
2022-08-08T01:47:00.844Z,50.902424
2022-08-08T01:48:14.034Z,50.902420
2022-08-08T01:49:01.825Z,50.902397
2022-08-08T01:50:00.817Z,50.902370
2022-08-08T01:51:00.885Z,50.902397
2022-08-08T01:52:42.376Z,50.902428
2022-08-08T01:55:14.615Z,50.902435
2022-08-08T01:55:16.845Z,50.902393
2022-08-08T01:55:44.918Z,50.902401
2022-08-08T01:56:28.199Z,50.902435
2022-08-08T01:57:01.771Z,50.902451
2022-08-08T01:58:11.381Z,50.902435
2022-08-08T01:59:02.803Z,50.902431
2022-08-08T02:00:01.566Z,50.902458
2022-08-08T02:01:00.787Z,50.902451
2022-08-08T02:02:03.284Z,50.902439
2022-08-08T02:03:01.747Z,50.902454
2022-08-08T02:04:01.891Z,50.902462
2022-08-08T02:05:00.709Z,50.902420
2022-08-08T02:06:00.682Z,50.902451
2022-08-08T02:07:01.689Z,50.902447
2022-08-08T02:08:00.707Z,50.902420
2022-08-08T02:09:00.668Z,50.902405
2022-08-08T02:10:03.726Z,50.902431
2022-08-08T02:11:01.658Z,50.902435
2022-08-08T02:12:00.915Z,50.902439
2022-08-08T02:13:01.673Z,50.902447
2022-08-08T02:14:00.637Z,50.902443
2022-08-08T02:15:00.866Z,50.902439
2022-08-08T02:16:00.650Z,50.902443
2022-08-08T02:17:00.615Z,50.902428
2022-08-08T02:18:00.646Z,50.902447
2022-08-08T02:19:00.602Z,50.902458
2022-08-08T02:20:09.821Z,50.902443
2022-08-08T02:21:08.545Z,50.902447
2022-08-08T02:22:01.578Z,50.902447
2022-08-08T02:23:00.606Z,50.902424
2022-08-08T02:24:00.563Z,50.902435
2022-08-08T02:25:00.562Z,50.902451
2022-08-08T02:26:01.548Z,50.902435
2022-08-08T02:27:01.086Z,50.902428
2022-08-08T02:28:00.903Z,50.902428
2022-08-08T02:29:00.534Z,50.902447
2022-08-08T02:30:00.510Z,50.902462
2022-08-08T02:31:02.117Z,50.902443
2022-08-08T02:32:01.249Z,50.902462
2022-08-08T02:33:00.517Z,50.902447
2022-08-08T02:34:09.310Z,50.902435
2022-08-08T02:35:11.376Z,50.902443
2022-08-08T02:36:05.110Z,50.902424
2022-08-08T02:37:00.461Z,50.902401
2022-08-08T02:38:00.480Z,50.902405
2022-08-08T02:39:01.061Z,50.902409
2022-08-08T02:40:01.436Z,50.902405
2022-08-08T02:41:00.431Z,50.902424
2022-08-08T02:42:05.656Z,50.902428
2022-08-08T02:44:38.613Z,50.902439
2022-08-08T02:44:39.101Z,50.902428
2022-08-08T02:45:01.404Z,50.902435
2022-08-08T02:46:00.394Z,50.902378
2022-08-08T02:47:00.392Z,50.902401
2022-08-08T02:48:00.413Z,50.902401
2022-08-08T02:49:00.390Z,50.902443
2022-08-08T02:50:00.363Z,50.902447
2022-08-08T02:51:00.363Z,50.902409
2022-08-08T02:52:04.373Z,50.902401
2022-08-08T02:53:02.363Z,50.902431
2022-08-08T02:54:00.488Z,50.902454
2022-08-08T02:55:02.085Z,50.902466
2022-08-08T02:56:00.334Z,50.902485
2022-08-08T02:57:00.315Z,50.902477
2022-08-08T02:58:00.299Z,50.902447
2022-08-08T02:59:00.323Z,50.902412
2022-08-08T03:00:15.743Z,50.902386
2022-08-08T03:01:01.322Z,50.902390
2022-08-08T03:02:00.291Z,50.902431
2022-08-08T03:03:00.321Z,50.902420
2022-08-08T03:05:03.186Z,50.902435
2022-08-08T03:05:08.778Z,50.902493
2022-08-08T03:06:01.247Z,50.902515
2022-08-08T03:07:00.230Z,50.902481
2022-08-08T03:08:00.228Z,50.902493
2022-08-08T03:09:00.245Z,50.902447
2022-08-08T03:10:00.239Z,50.902428
2022-08-08T03:11:00.204Z,50.902416
2022-08-08T03:12:02.877Z,50.902424
2022-08-08T03:13:33.587Z,50.902424
2022-08-08T03:15:58.344Z,50.902416
2022-08-08T03:16:03.865Z,50.902390
2022-08-08T03:16:05.175Z,50.902435
2022-08-08T03:17:02.165Z,50.902424
2022-08-08T03:18:06.544Z,50.902424
2022-08-08T03:19:01.140Z,50.902401
2022-08-08T03:20:00.152Z,50.902409
2022-08-08T03:21:00.141Z,50.902359
2022-08-08T03:22:00.253Z,50.902386
2022-08-08T03:23:00.623Z,50.902412
2022-08-08T03:24:01.939Z,50.902397
2022-08-08T03:25:00.148Z,50.902439
2022-08-08T03:26:00.113Z,50.902390
2022-08-08T03:27:00.090Z,50.902367
2022-08-08T03:28:00.110Z,50.902370
2022-08-08T03:29:00.081Z,50.902382
2022-08-08T03:30:00.071Z,50.902390
2022-08-08T03:31:13.545Z,50.902397
2022-08-08T03:32:06.149Z,50.902409
2022-08-08T03:33:03.732Z,50.902370
2022-08-08T03:34:02.114Z,50.902363
2022-08-08T03:35:00.026Z,50.902363
2022-08-08T03:36:00.020Z,50.902370
2022-08-08T03:37:00.026Z,50.902390
2022-08-08T03:38:53.778Z,50.902378
2022-08-08T03:39:14.790Z,50.902401
2022-08-08T03:40:02.325Z,50.902405
2022-08-08T03:41:01.084Z,50.902374
2022-08-08T03:42:27.228Z,50.902363
2022-08-08T03:43:16.857Z,50.902359
2022-08-08T03:44:00.976Z,50.902374
2022-08-08T03:44:59.948Z,50.902370
2022-08-08T03:46:05.821Z,50.902367
2022-08-08T03:47:07.154Z,50.902351
2022-08-08T03:48:00.919Z,50.902340
2022-08-08T03:49:30.317Z,50.902367
2022-08-08T03:50:02.390Z,50.902386
2022-08-08T03:51:00.902Z,50.902401
2022-08-08T03:51:59.893Z,50.902386
2022-08-08T03:52:59.878Z,50.902363
2022-08-08T03:53:59.899Z,50.902374
2022-08-08T03:55:09.919Z,50.902382
2022-08-08T03:56:04.444Z,50.902374
2022-08-08T03:56:59.851Z,50.902367
2022-08-08T03:58:33.742Z,50.902321
2022-08-08T03:59:00.884Z,50.902367
2022-08-08T04:00:11.261Z,50.902367
2022-08-08T04:01:20.769Z,50.902351
2022-08-08T04:02:20.652Z,50.902363
2022-08-08T04:03:01.544Z,50.902355
2022-08-08T04:04:02.006Z,50.902367
2022-08-08T04:05:00.788Z,50.902378
2022-08-08T04:05:59.784Z,50.902374
2022-08-08T04:07:00.996Z,50.902386
2022-08-08T04:08:00.731Z,50.902390
2022-08-08T04:09:10.643Z,50.902374
2022-08-08T04:10:05.029Z,50.902363
2022-08-08T04:11:00.744Z,50.902374
2022-08-08T04:12:00.759Z,50.902401
2022-08-08T04:12:59.729Z,50.902386
2022-08-08T04:14:33.056Z,50.902382
2022-08-08T04:15:00.719Z,50.902332
2022-08-08T04:16:05.517Z,50.902359
2022-08-08T04:17:00.692Z,50.902351
2022-08-08T04:17:59.724Z,50.902382
2022-08-08T04:19:00.710Z,50.902374
2022-08-08T04:20:01.980Z,50.902382
2022-08-08T04:21:00.863Z,50.902374
2022-08-08T04:21:59.660Z,50.902367
2022-08-08T04:22:59.651Z,50.902378
2022-08-08T04:24:11.856Z,50.902370
2022-08-08T04:25:02.254Z,50.902382
2022-08-08T04:26:01.325Z,50.902397
2022-08-08T04:27:00.761Z,50.902382
2022-08-08T04:28:35.505Z,50.902370
2022-08-08T04:29:00.648Z,50.902370
2022-08-08T04:30:01.002Z,50.902359
2022-08-08T04:31:01.137Z,50.902363
2022-08-08T04:32:00.589Z,50.902355
2022-08-08T04:33:00.588Z,50.902359
2022-08-08T04:33:59.579Z,50.902336
2022-08-08T04:34:59.625Z,50.902321
2022-08-08T04:35:59.580Z,50.902382
2022-08-08T04:36:59.545Z,50.902412
2022-08-08T04:37:59.549Z,50.902367
2022-08-08T04:39:47.697Z,50.902348
2022-08-08T04:40:05.182Z,50.902412
2022-08-08T04:41:00.587Z,50.902393
2022-08-08T04:41:59.509Z,50.902378
2022-08-08T04:43:01.074Z,50.902401
2022-08-08T04:43:59.524Z,50.902397
2022-08-08T04:44:59.487Z,50.902401
2022-08-08T04:45:59.479Z,50.902409
2022-08-08T04:46:59.466Z,50.902401
2022-08-08T04:48:00.478Z,50.902393
2022-08-08T04:48:59.485Z,50.902409
2022-08-08T04:50:04.563Z,50.902424
2022-08-08T04:51:00.436Z,50.902416
2022-08-08T04:51:59.431Z,50.902428
2022-08-08T04:53:04.732Z,50.902420
2022-08-08T04:54:37.960Z,50.902416
2022-08-08T04:55:00.409Z,50.902412
2022-08-08T04:55:59.635Z,50.902409
2022-08-08T04:56:59.404Z,50.902401
2022-08-08T04:57:59.401Z,50.902378
2022-08-08T04:58:59.414Z,50.902370
2022-08-08T04:59:59.641Z,50.902367
2022-08-08T05:00:59.354Z,50.902374
2022-08-08T05:02:00.803Z,50.902367
2022-08-08T05:02:59.349Z,50.902390
2022-08-08T05:04:10.696Z,50.902374
2022-08-08T05:05:00.733Z,50.902382
2022-08-08T05:05:59.322Z,50.902405
2022-08-08T05:06:59.321Z,50.902405
2022-08-08T05:07:59.311Z,50.902370
2022-08-08T05:09:02.855Z,50.902390
2022-08-08T05:10:00.294Z,50.902378
2022-08-08T05:10:59.287Z,50.902351
2022-08-08T05:11:59.278Z,50.902378
2022-08-08T05:13:01.657Z,50.902393
2022-08-08T05:14:01.426Z,50.902390
2022-08-08T05:14:59.258Z,50.902367
2022-08-08T05:16:51.360Z,50.902386
2022-08-08T05:17:01.584Z,50.902382
2022-08-08T05:17:59.230Z,50.902390
2022-08-08T05:18:59.251Z,50.902370
2022-08-08T05:20:12.851Z,50.902363
2022-08-08T05:21:00.212Z,50.902393
2022-08-08T05:22:00.731Z,50.902390
2022-08-08T05:22:59.194Z,50.902370
2022-08-08T05:24:04.442Z,50.902393
2022-08-08T05:25:00.185Z,50.902386
2022-08-08T05:26:00.379Z,50.902370
2022-08-08T05:27:00.168Z,50.902382
2022-08-08T05:27:59.161Z,50.902378
2022-08-08T05:29:06.199Z,50.902359
2022-08-08T05:30:00.170Z,50.902390
2022-08-08T05:31:08.668Z,50.902374
2022-08-08T05:32:05.493Z,50.902386
2022-08-08T05:33:00.109Z,50.902374
2022-08-08T05:33:59.111Z,50.902382
2022-08-08T05:34:59.151Z,50.902382
2022-08-08T05:35:59.096Z,50.902378
2022-08-08T05:36:59.081Z,50.902393
2022-08-08T05:37:59.076Z,50.902405
2022-08-08T05:38:59.104Z,50.902397
2022-08-08T05:39:59.137Z,50.902401
2022-08-08T05:40:59.135Z,50.902397
2022-08-08T05:41:59.059Z,50.902401
2022-08-08T05:42:59.045Z,50.902416
2022-08-08T05:44:03.804Z,50.902405
2022-08-08T05:45:00.744Z,50.902420
2022-08-08T05:46:03.714Z,50.902359
2022-08-08T05:47:02.716Z,50.902336
2022-08-08T05:48:00.717Z,50.902393
2022-08-08T05:49:00.044Z,50.902397
2022-08-08T05:49:58.997Z,50.902401
2022-08-08T05:51:14.523Z,50.902386
2022-08-08T05:51:59.968Z,50.902382
2022-08-08T05:52:58.972Z,50.902355
2022-08-08T05:54:27.066Z,50.902382
2022-08-08T05:55:04.421Z,50.902390
2022-08-08T05:56:11.070Z,50.902390
2022-08-08T05:56:59.929Z,50.902382
2022-08-08T05:58:06.074Z,50.902386
2022-08-08T05:59:03.949Z,50.902390
2022-08-08T06:00:22.461Z,50.902401
2022-08-08T06:00:59.894Z,50.902401
2022-08-08T06:01:59.839Z,50.902382
2022-08-08T06:02:58.928Z,50.902401
2022-08-08T06:03:58.921Z,50.902378
2022-08-08T06:04:58.897Z,50.902390
2022-08-08T06:05:59.517Z,50.902390
2022-08-08T06:07:00.502Z,50.902412
2022-08-08T06:08:02.798Z,50.902401
2022-08-08T06:09:00.362Z,50.902393
2022-08-08T06:10:02.288Z,50.902374
2022-08-08T06:10:58.829Z,50.902386
2022-08-08T06:11:58.820Z,50.902374
2022-08-08T06:13:01.673Z,50.902390
2022-08-08T06:13:58.803Z,50.902405
2022-08-08T06:14:58.821Z,50.902393
2022-08-08T06:15:58.795Z,50.902382
2022-08-08T06:16:58.786Z,50.902363
2022-08-08T06:18:21.098Z,50.902397
2022-08-08T06:18:59.765Z,50.902390
2022-08-08T06:19:58.779Z,50.902393
2022-08-08T06:20:58.753Z,50.902401
2022-08-08T06:21:59.907Z,50.902393
2022-08-08T06:22:58.733Z,50.902409
2022-08-08T06:24:03.403Z,50.902374
2022-08-08T06:24:59.739Z,50.902393
2022-08-08T06:26:43.395Z,50.902401
2022-08-08T06:26:59.704Z,50.902393
2022-08-08T06:27:58.727Z,50.902397
2022-08-08T06:29:02.196Z,50.902397
2022-08-08T06:30:00.836Z,50.902428
2022-08-08T06:30:58.665Z,50.902409
2022-08-08T06:32:10.377Z,50.902405
2022-08-08T06:33:01.340Z,50.902401
2022-08-08T06:34:27.038Z,50.902401
2022-08-08T06:36:06.280Z,50.902416
2022-08-08T06:36:07.669Z,50.902416
2022-08-08T06:37:00.165Z,50.902405
2022-08-08T06:37:58.618Z,50.902412
2022-08-08T06:38:58.611Z,50.902420
2022-08-08T06:40:00.712Z,50.902416
2022-08-08T06:40:58.679Z,50.902416
2022-08-08T06:41:58.586Z,50.902412
2022-08-08T06:42:58.615Z,50.902420
2022-08-08T06:43:59.570Z,50.902420
2022-08-08T06:44:58.768Z,50.902443
2022-08-08T06:45:58.551Z,50.902443
2022-08-08T06:46:58.547Z,50.902454
2022-08-08T06:48:01.788Z,50.902454
2022-08-08T06:48:58.529Z,50.902431
2022-08-08T06:49:58.577Z,50.902431
2022-08-08T06:50:58.531Z,50.902420
2022-08-08T06:51:58.513Z,50.902401
2022-08-08T06:52:58.499Z,50.902386
2022-08-08T06:54:00.832Z,50.902405
2022-08-08T06:54:58.543Z,50.902367
2022-08-08T06:56:02.038Z,50.902370
2022-08-08T06:56:58.472Z,50.902428
2022-08-08T06:58:02.108Z,50.902435
2022-08-08T06:59:00.450Z,50.902451
2022-08-08T07:00:10.127Z,50.902431
2022-08-08T07:00:59.441Z,50.902435
2022-08-08T07:02:17.870Z,50.902439
2022-08-08T07:02:59.511Z,50.902435
2022-08-08T07:04:37.929Z,50.902435
2022-08-08T07:05:00.507Z,50.902443
2022-08-08T07:06:02.076Z,50.902431
2022-08-08T07:06:58.416Z,50.902431
2022-08-08T07:07:58.393Z,50.902431
2022-08-08T07:08:58.386Z,50.902439
2022-08-08T07:10:00.304Z,50.902443
2022-08-08T07:10:58.364Z,50.902458
2022-08-08T07:11:58.355Z,50.902420
2022-08-08T07:12:58.345Z,50.902439
2022-08-08T07:14:00.931Z,50.902435
2022-08-08T07:14:58.365Z,50.902435
2022-08-08T07:16:04.370Z,50.902454
2022-08-08T07:16:59.317Z,50.902447
2022-08-08T07:18:02.076Z,50.902458
2022-08-08T07:18:59.299Z,50.902431
2022-08-08T07:19:59.844Z,50.902435
2022-08-08T07:20:58.405Z,50.902428
2022-08-08T07:22:05.115Z,50.902439
2022-08-08T07:23:00.271Z,50.902443
2022-08-08T07:24:03.734Z,50.902451
2022-08-08T07:24:59.421Z,50.902451
2022-08-08T07:25:58.267Z,50.902462
2022-08-08T07:26:58.378Z,50.902458
2022-08-08T07:28:07.845Z,50.902451
2022-08-08T07:28:59.225Z,50.902462
2022-08-08T07:30:28.115Z,50.902477
2022-08-08T07:30:58.209Z,50.902470
2022-08-08T07:31:58.208Z,50.902470
2022-08-08T07:32:59.458Z,50.902458
2022-08-08T07:33:59.361Z,50.902466
2022-08-08T07:35:01.131Z,50.902447
2022-08-08T07:35:58.186Z,50.902443
2022-08-08T07:36:58.168Z,50.902458
2022-08-08T07:38:09.789Z,50.902458
2022-08-08T07:38:59.157Z,50.902443
2022-08-08T07:39:59.902Z,50.902462
2022-08-08T07:40:58.609Z,50.902470
2022-08-08T07:42:04.163Z,50.902435
2022-08-08T07:42:59.488Z,50.902428
2022-08-08T07:43:58.137Z,50.902428
2022-08-08T07:44:58.143Z,50.902447
2022-08-08T07:46:23.206Z,50.902431
2022-08-08T07:46:59.115Z,50.902420
2022-08-08T07:47:59.079Z,50.902416
2022-08-08T07:48:58.077Z,50.902485
2022-08-08T07:49:58.550Z,50.902428
2022-08-08T07:50:58.086Z,50.902409
2022-08-08T07:51:58.078Z,50.902431
2022-08-08T07:52:58.047Z,50.902424
2022-08-08T07:54:02.882Z,50.902401
2022-08-08T07:54:59.031Z,50.902412
2022-08-08T07:55:58.057Z,50.902382
2022-08-08T07:56:58.036Z,50.902378
2022-08-08T07:57:58.004Z,50.902363
2022-08-08T07:58:58.003Z,50.902454
2022-08-08T07:59:57.992Z,50.902390
2022-08-08T08:00:58.083Z,50.902401
2022-08-08T08:02:37.035Z,50.902374
2022-08-08T08:02:58.973Z,50.902393
2022-08-08T08:03:57.964Z,50.902401
2022-08-08T08:04:57.959Z,50.902317
2022-08-08T08:05:57.986Z,50.902378
2022-08-08T08:06:57.928Z,50.902367
2022-08-08T08:07:59.225Z,50.902363
2022-08-08T08:08:57.926Z,50.902412
2022-08-08T08:09:57.912Z,50.902458
2022-08-08T08:10:57.930Z,50.902428
2022-08-08T08:11:57.916Z,50.902386
2022-08-08T08:12:57.900Z,50.902412
2022-08-08T08:14:07.921Z,50.902374
2022-08-08T08:14:58.874Z,50.902393
2022-08-08T08:15:57.895Z,50.902409
2022-08-08T08:16:57.857Z,50.902317
2022-08-08T08:17:57.923Z,50.902390
2022-08-08T08:18:57.844Z,50.902397
2022-08-08T08:19:57.835Z,50.902405
2022-08-08T08:20:57.856Z,50.902401
2022-08-08T08:22:00.806Z,50.902393
2022-08-08T08:22:57.816Z,50.902386
2022-08-08T08:24:02.686Z,50.902409
2022-08-08T08:24:58.795Z,50.902405
2022-08-08T08:25:58.836Z,50.902420
2022-08-08T08:26:58.785Z,50.902412
2022-08-08T08:27:57.776Z,50.902409
2022-08-08T08:28:57.769Z,50.902393
2022-08-08T08:29:57.764Z,50.902393
2022-08-08T08:30:57.787Z,50.902393
2022-08-08T08:31:59.165Z,50.902382
2022-08-08T08:32:59.244Z,50.902409
2022-08-08T08:33:57.734Z,50.902386
2022-08-08T08:34:57.728Z,50.902386
2022-08-08T08:36:20.454Z,50.902393
2022-08-08T08:36:58.716Z,50.902382
2022-08-08T08:38:15.650Z,50.902370
2022-08-08T08:38:59.699Z,50.902390
2022-08-08T08:40:01.774Z,50.902405
2022-08-08T08:40:58.710Z,50.902397
2022-08-08T08:41:57.682Z,50.902390
2022-08-08T08:42:57.672Z,50.902409
2022-08-08T08:44:08.666Z,50.902416
2022-08-08T08:44:58.760Z,50.902401
2022-08-08T08:45:57.808Z,50.902409
2022-08-08T08:46:58.905Z,50.902386
2022-08-08T08:47:58.519Z,50.902428
2022-08-08T08:48:57.626Z,50.902374
2022-08-08T08:49:57.614Z,50.902397
2022-08-08T08:50:57.636Z,50.902386
2022-08-08T08:51:57.601Z,50.902412
2022-08-08T08:53:00.150Z,50.902397
2022-08-08T08:54:00.908Z,50.902416
2022-08-08T08:54:57.583Z,50.902401
2022-08-08T08:56:01.918Z,50.902431
2022-08-08T08:56:58.573Z,50.902409
2022-08-08T08:57:57.568Z,50.902443
2022-08-08T08:58:58.053Z,50.902397
2022-08-08T09:00:00.294Z,50.902409
2022-08-08T09:01:08.512Z,50.902393
2022-08-08T09:01:59.594Z,50.902409
2022-08-08T09:02:57.528Z,50.902397
2022-08-08T09:03:57.519Z,50.902382
2022-08-08T09:04:57.534Z,50.902412
2022-08-08T09:05:57.532Z,50.902363
2022-08-08T09:06:57.498Z,50.902367
2022-08-08T09:08:12.425Z,50.902374
2022-08-08T09:08:58.478Z,50.902374
2022-08-08T09:09:58.342Z,50.902378
2022-08-08T09:10:57.493Z,50.902401
2022-08-08T09:12:01.573Z,50.902409
2022-08-08T09:12:58.445Z,50.902405
2022-08-08T09:13:57.446Z,50.902412
2022-08-08T09:14:57.432Z,50.902416
2022-08-08T09:16:03.985Z,50.902405
2022-08-08T09:16:58.439Z,50.902401
2022-08-08T09:17:57.633Z,50.902393
2022-08-08T09:18:57.404Z,50.902390
2022-08-08T09:21:56.515Z,50.902401
2022-08-08T09:21:56.922Z,50.902401
2022-08-08T09:22:06.136Z,50.902393
2022-08-08T09:22:59.360Z,50.902374
2022-08-08T09:23:58.375Z,50.902370
2022-08-08T09:24:58.437Z,50.902412
2022-08-08T09:26:02.067Z,50.902401
2022-08-08T09:26:58.369Z,50.902390
2022-08-08T09:27:58.551Z,50.902412
2022-08-08T09:28:58.326Z,50.902390
2022-08-08T09:29:57.323Z,50.902401
2022-08-08T09:30:57.323Z,50.902409
2022-08-08T09:31:57.720Z,50.902428
2022-08-08T09:33:12.947Z,50.902439
2022-08-08T09:34:30.221Z,50.902390
2022-08-08T09:34:58.280Z,50.902409
2022-08-08T09:35:57.274Z,50.902416
2022-08-08T09:37:39.570Z,50.902409
2022-08-08T09:38:02.355Z,50.902397
2022-08-08T09:38:58.063Z,50.902409
2022-08-08T09:39:57.283Z,50.902412
2022-08-08T09:40:57.749Z,50.902416
2022-08-08T09:42:20.764Z,50.902401
2022-08-08T09:42:58.235Z,50.902370
2022-08-08T09:44:11.404Z,50.902363
2022-08-08T09:44:58.210Z,50.902378
2022-08-08T09:46:02.720Z,50.902393
2022-08-08T09:47:25.350Z,50.902405
2022-08-08T09:48:09.847Z,50.902405
2022-08-08T09:48:58.181Z,50.902431
2022-08-08T09:50:03.459Z,50.902416
2022-08-08T09:50:58.159Z,50.902382
2022-08-08T09:52:07.035Z,50.902397
2022-08-08T09:53:02.186Z,50.902397
2022-08-08T09:54:09.569Z,50.902447
2022-08-08T09:54:59.129Z,50.902405
2022-08-08T09:56:05.969Z,50.902397
2022-08-08T09:56:59.138Z,50.902409
2022-08-08T09:57:57.113Z,50.902431
2022-08-08T09:58:57.727Z,50.902367
2022-08-08T10:00:59.204Z,50.902431
2022-08-08T10:01:59.001Z,50.902401
2022-08-08T10:02:58.073Z,50.902378
2022-08-08T10:03:57.345Z,50.902405
2022-08-08T10:04:57.086Z,50.902409
2022-08-08T10:05:57.106Z,50.902401
2022-08-08T10:06:57.071Z,50.902420
2022-08-08T10:07:59.867Z,50.902397
2022-08-08T10:08:57.323Z,50.902382
2022-08-08T10:10:00.065Z,50.902431
2022-08-08T10:10:57.015Z,50.902424
2022-08-08T10:12:23.169Z,50.902405
2022-08-08T10:13:14.135Z,50.902412
2022-08-08T10:14:00.897Z,50.902412
2022-08-08T10:15:01.197Z,50.902420
2022-08-08T10:16:03.517Z,50.902409
2022-08-08T10:16:59.822Z,50.902397
2022-08-08T10:18:10.252Z,50.902390
2022-08-08T10:19:00.834Z,50.902416
2022-08-08T10:20:01.879Z,50.902424
2022-08-08T10:21:03.388Z,50.902428
2022-08-08T10:21:58.813Z,50.902420
2022-08-08T10:22:58.827Z,50.902428
2022-08-08T10:23:59.686Z,50.902409
2022-08-08T10:24:59.991Z,50.902401
2022-08-08T10:25:58.336Z,50.902409
2022-08-08T10:27:00.150Z,50.902416
2022-08-08T10:27:59.529Z,50.902420
2022-08-08T10:28:59.320Z,50.902412
2022-08-08T10:29:59.818Z,50.902428
2022-08-08T10:31:01.250Z,50.902416
2022-08-08T10:31:57.891Z,50.902374
2022-08-08T10:32:56.850Z,50.902378
2022-08-08T10:34:20.249Z,50.902382
2022-08-08T10:35:01.239Z,50.902405
2022-08-08T10:36:07.971Z,50.902374
2022-08-08T10:36:59.512Z,50.902386
2022-08-08T10:37:56.818Z,50.902374
2022-08-08T10:38:56.803Z,50.902390
2022-08-08T10:39:56.829Z,50.902378
2022-08-08T10:40:56.795Z,50.902378
2022-08-08T10:42:12.965Z,50.902370
2022-08-08T10:42:57.777Z,50.902409
2022-08-08T10:43:56.775Z,50.902405
2022-08-08T10:44:56.767Z,50.902416
2022-08-08T10:45:58.911Z,50.902416
2022-08-08T10:46:57.781Z,50.902409
2022-08-08T10:47:56.755Z,50.902393
2022-08-08T10:48:58.824Z,50.902386
2022-08-08T10:50:00.768Z,50.902397
2022-08-08T10:50:57.721Z,50.902367
2022-08-08T10:51:56.713Z,50.902390
2022-08-08T10:52:56.737Z,50.902405
2022-08-08T10:53:59.533Z,50.902409
2022-08-08T10:54:56.730Z,50.902393
2022-08-08T10:55:56.699Z,50.902412
2022-08-08T10:56:56.679Z,50.902401
2022-08-08T10:57:56.726Z,50.902397
2022-08-08T10:58:56.682Z,50.902348
2022-08-08T10:59:56.666Z,50.902390
2022-08-08T11:01:03.259Z,50.902370
2022-08-08T11:01:57.698Z,50.902420
2022-08-08T11:02:56.666Z,50.902378
2022-08-08T11:04:02.451Z,50.902355
2022-08-08T11:04:57.627Z,50.902386
2022-08-08T11:06:00.661Z,50.902382
2022-08-08T11:06:56.627Z,50.902390
2022-08-08T11:08:38.804Z,50.902405
2022-08-08T11:08:57.589Z,50.902382
2022-08-08T11:09:56.585Z,50.902363
2022-08-08T11:10:56.584Z,50.902393
2022-08-08T11:12:05.960Z,50.902428
2022-08-08T11:13:18.634Z,50.902401
2022-08-08T11:14:00.757Z,50.902393
2022-08-08T11:14:56.549Z,50.902397
2022-08-08T11:16:07.434Z,50.902393
2022-08-08T11:16:57.532Z,50.902397
2022-08-08T11:17:58.642Z,50.902390
2022-08-08T11:18:57.518Z,50.902378
2022-08-08T11:19:56.514Z,50.902390
2022-08-08T11:20:57.464Z,50.902412
2022-08-08T11:21:56.542Z,50.902420
2022-08-08T11:22:56.527Z,50.902355
2022-08-08T11:24:03.006Z,50.902374
2022-08-08T11:24:57.477Z,50.902428